createdAt,value
2018-04-16T00:07:43.747Z,72.0
2018-04-16T00:24:25.335Z,72.8
2018-04-16T00:41:06.280Z,73.2
2018-04-16T00:57:46.892Z,73.6
2018-04-16T01:14:27.458Z,74.0
2018-04-16T01:31:07.854Z,74.0
2018-04-16T01:47:48.269Z,74.0
2018-04-16T02:04:28.732Z,74.0
2018-04-16T02:21:08.641Z,74.8
2018-04-16T02:37:49.034Z,74.8
2018-04-16T02:54:29.341Z,74.8
2018-04-16T03:11:09.264Z,74.8
2018-04-16T03:27:48.930Z,74.8
2018-04-16T03:44:29.173Z,75.2
2018-04-16T04:01:08.568Z,75.2
2018-04-16T04:17:48.430Z,75.6
2018-04-16T04:34:28.204Z,75.6
2018-04-16T04:51:07.361Z,75.6
2018-04-16T05:07:46.792Z,76.0
2018-04-16T05:24:26.769Z,76.4
2018-04-16T05:41:06.296Z,76.8
2018-04-16T05:57:46.172Z,76.0
2018-04-16T06:07:46.758Z,75.6
2018-04-16T06:14:27.572Z,74.8
2018-04-16T06:24:28.716Z,74.8
2018-04-16T06:34:30.530Z,73.6
2018-04-16T06:51:13.535Z,73.2
2018-04-16T07:01:15.270Z,72.4
2018-04-16T07:17:59.023Z,70.8
2018-04-16T07:34:43.110Z,70.0
2018-04-16T07:51:27.037Z,69.6
2018-04-16T08:08:10.449Z,69.6
2018-04-16T08:21:33.305Z,68.4
2018-04-16T08:34:58.238Z,67.6
2018-04-16T08:48:21.213Z,66.8
2018-04-16T08:58:24.004Z,66.4
2018-04-16T09:15:08.318Z,65.2
2018-04-16T09:31:54.315Z,64.0
2018-04-16T09:48:39.597Z,63.2
2018-04-16T10:05:25.145Z,62.4
2018-04-16T10:15:28.399Z,62.0
2018-04-16T10:28:53.056Z,60.0
2018-04-16T10:45:39.422Z,59.6
2018-04-16T11:02:25.980Z,58.4
2018-04-16T11:19:11.235Z,57.2
2018-04-16T11:32:36.733Z,57.2
2018-04-16T11:46:06.153Z,57.6
2018-04-16T11:59:26.228Z,56.4
2018-04-16T12:16:13.156Z,56.0
2018-04-16T12:29:39.217Z,55.2
2018-04-16T12:39:43.103Z,52.8
2018-04-16T12:56:30.790Z,52.4
2018-04-16T13:13:18.589Z,52.8
2018-04-16T13:30:04.923Z,51.2
2018-04-16T13:46:51.832Z,52.0
2018-04-16T13:56:57.151Z,50.8
2018-04-16T14:13:44.032Z,51.2
2018-04-16T14:30:30.760Z,50.0
2018-04-16T14:47:19.216Z,50.0
2018-04-16T15:04:06.157Z,48.8
2018-04-16T15:20:52.389Z,48.8
2018-04-16T15:37:39.183Z,48.4
2018-04-16T15:54:25.580Z,48.8
2018-04-16T16:11:11.189Z,48.0
2018-04-16T16:27:58.604Z,48.0
2018-04-16T16:44:45.054Z,47.2
2018-04-16T17:01:31.164Z,46.0
2018-04-16T17:08:14.090Z,46.8
2018-04-16T17:18:17.575Z,47.2
2018-04-16T17:28:20.320Z,47.2
2018-04-16T17:45:06.427Z,48.0
2018-04-16T18:01:49.285Z,48.8
2018-04-16T18:15:12.764Z,49.6
2018-04-16T18:31:56.788Z,50.4
2018-04-16T18:48:39.740Z,51.2
2018-04-16T19:05:22.938Z,52.0
2018-04-16T19:22:06.382Z,52.8
2018-04-16T19:38:49.974Z,53.6
2018-04-16T19:55:31.474Z,54.0
2018-04-16T20:12:15.029Z,54.4
2018-04-16T20:28:56.102Z,55.6
2018-04-16T20:45:36.623Z,56.0
2018-04-16T21:02:18.820Z,56.8
2018-04-16T21:18:59.553Z,57.6
2018-04-16T21:35:40.397Z,58.8
2018-04-16T21:52:21.506Z,59.6
2018-04-16T22:09:02.447Z,60.4
2018-04-16T22:25:42.591Z,61.2
2018-04-16T22:42:23.753Z,61.6
2018-04-16T22:59:03.265Z,62.4
2018-04-16T23:15:44.023Z,63.2
2018-04-16T23:32:23.323Z,63.6
2018-04-16T23:49:03.539Z,64.4
